createdAt,value
2017-07-29T00:01:51.053Z,19.46
2017-07-29T00:04:19.416Z,19.37
2017-07-29T00:06:47.783Z,19.36
2017-07-29T00:09:16.603Z,19.23
2017-07-29T00:11:44.967Z,19.08
2017-07-29T00:14:14.095Z,19.03
2017-07-29T00:16:43.365Z,18.83
2017-07-29T00:19:11.699Z,18.74
2017-07-29T00:21:40.036Z,18.77
2017-07-29T00:24:08.717Z,18.78
2017-07-29T00:26:37.064Z,18.74
2017-07-29T00:29:05.410Z,18.91
2017-07-29T00:31:34.359Z,19.06
2017-07-29T00:34:02.716Z,19.10
2017-07-29T00:36:31.077Z,19.07
2017-07-29T00:38:59.740Z,19.10
2017-07-29T00:41:28.089Z,19.13
2017-07-29T00:43:56.463Z,19.11
2017-07-29T00:46:25.146Z,19.03
2017-07-29T00:48:53.524Z,19.16
2017-07-29T00:51:21.912Z,19.02
2017-07-29T00:53:50.745Z,18.96
2017-07-29T00:56:19.103Z,19.03
2017-07-29T00:58:47.453Z,18.91
2017-07-29T01:01:16.306Z,18.85
2017-07-29T01:03:44.649Z,18.71
2017-07-29T01:06:13.006Z,18.85
2017-07-29T01:08:41.684Z,18.80
2017-07-29T01:11:10.049Z,18.81
2017-07-29T01:13:38.407Z,18.86
2017-07-29T01:16:07.089Z,18.78
2017-07-29T01:18:36.229Z,18.74
2017-07-29T01:21:04.599Z,18.80
2017-07-29T01:23:33.463Z,18.87
2017-07-29T01:26:01.811Z,18.95
2017-07-29T01:28:30.926Z,19.05
2017-07-29T01:31:00.318Z,18.96
2017-07-29T01:33:28.671Z,19.02
2017-07-29T01:35:57.060Z,19.06
2017-07-29T01:38:25.965Z,18.88
2017-07-29T01:40:54.329Z,19.03
2017-07-29T01:43:22.676Z,19.22
2017-07-29T01:45:51.407Z,19.31
2017-07-29T01:48:20.559Z,19.30
2017-07-29T01:50:48.926Z,19.43
2017-07-29T01:53:17.720Z,19.31
2017-07-29T01:55:46.064Z,19.52
2017-07-29T01:58:14.936Z,19.37
2017-07-29T02:00:43.891Z,19.47
2017-07-29T02:03:12.242Z,19.47
2017-07-29T02:05:40.570Z,19.58
2017-07-29T02:08:09.194Z,19.71
2017-07-29T02:10:37.530Z,19.72
2017-07-29T02:13:05.880Z,19.33
2017-07-29T02:15:34.665Z,19.29
2017-07-29T02:18:03.016Z,19.12
2017-07-29T02:20:32.117Z,19.27
2017-07-29T02:23:01.631Z,19.24
2017-07-29T02:25:29.989Z,19.16
2017-07-29T02:27:58.357Z,19.08
2017-07-29T02:30:27.191Z,19.08
2017-07-29T02:32:55.547Z,19.11
2017-07-29T02:35:24.665Z,19.04
2017-07-29T02:37:53.487Z,19.16
2017-07-29T02:40:21.867Z,19.17
2017-07-29T02:42:50.258Z,19.31
2017-07-29T02:45:18.952Z,19.52
2017-07-29T02:47:47.320Z,19.46
2017-07-29T02:50:15.693Z,19.36
2017-07-29T02:52:44.554Z,19.43
2017-07-29T02:55:12.908Z,19.17
2017-07-29T02:57:41.249Z,19.17
2017-07-29T03:00:09.906Z,19.11
2017-07-29T03:02:38.248Z,19.13
2017-07-29T03:05:06.587Z,19.09
2017-07-29T03:07:36.940Z,18.99
2017-07-29T03:10:05.290Z,18.95
2017-07-29T03:12:33.665Z,19.04
2017-07-29T03:15:02.294Z,19.19
2017-07-29T03:17:30.635Z,19.10
2017-07-29T03:19:59.011Z,19.22
2017-07-29T03:22:27.968Z,19.27
2017-07-29T03:24:56.315Z,19.36
2017-07-29T03:27:24.666Z,19.28
2017-07-29T03:29:53.822Z,19.48
2017-07-29T03:32:22.141Z,19.10
2017-07-29T03:34:50.478Z,18.86
2017-07-29T03:37:19.130Z,19.04
2017-07-29T03:39:47.487Z,18.87
2017-07-29T03:42:15.851Z,18.81
2017-07-29T03:44:44.532Z,19.00
2017-07-29T03:47:12.865Z,18.85
2017-07-29T03:49:41.235Z,18.92
2017-07-29T03:52:09.922Z,18.89
2017-07-29T03:54:38.298Z,19.02
2017-07-29T03:57:07.452Z,18.89
2017-07-29T03:59:36.114Z,18.79
2017-07-29T04:02:04.470Z,18.83
2017-07-29T04:04:32.825Z,18.95
2017-07-29T04:07:01.478Z,18.92
2017-07-29T04:09:29.822Z,18.97
2017-07-29T04:11:58.938Z,19.02
2017-07-29T04:14:27.957Z,18.83
2017-07-29T04:16:56.280Z,18.81
2017-07-29T04:19:24.642Z,18.97
2017-07-29T04:21:53.324Z,18.92
2017-07-29T04:24:21.666Z,18.90
2017-07-29T04:26:49.997Z,18.90
2017-07-29T04:29:18.614Z,18.87
2017-07-29T04:31:47.076Z,18.67
2017-07-29T04:34:15.427Z,18.55
2017-07-29T04:36:44.504Z,18.47
2017-07-29T04:39:12.858Z,18.58
2017-07-29T04:41:41.202Z,18.66
2017-07-29T04:44:09.843Z,18.47
2017-07-29T04:46:38.199Z,18.60
2017-07-29T04:49:06.556Z,18.59
2017-07-29T04:51:36.191Z,18.47
2017-07-29T04:54:04.522Z,18.48
2017-07-29T04:56:32.888Z,18.52
2017-07-29T04:59:01.657Z,18.63
2017-07-29T05:01:30.000Z,18.75
2017-07-29T05:03:58.350Z,18.59
2017-07-29T05:06:27.260Z,18.57
2017-07-29T05:08:55.703Z,18.68
2017-07-29T05:11:24.116Z,18.82
2017-07-29T05:13:53.623Z,18.76
2017-07-29T05:16:22.719Z,18.66
2017-07-29T05:18:51.817Z,18.70
2017-07-29T05:21:21.439Z,18.70
2017-07-29T05:23:49.769Z,18.79
2017-07-29T05:26:18.123Z,18.70
2017-07-29T05:28:46.903Z,18.93
2017-07-29T05:31:15.266Z,18.66
2017-07-29T05:33:43.640Z,18.82
2017-07-29T05:36:12.267Z,18.82
2017-07-29T05:38:40.614Z,18.86
2017-07-29T05:41:08.964Z,18.85
2017-07-29T05:43:38.703Z,18.93
2017-07-29T05:46:07.052Z,18.90
2017-07-29T05:48:35.406Z,18.63
2017-07-29T05:51:04.029Z,18.56
2017-07-29T05:53:32.359Z,18.70
2017-07-29T05:56:00.731Z,18.62
2017-07-29T05:58:29.360Z,18.81
2017-07-29T06:00:58.492Z,18.78
2017-07-29T06:03:26.821Z,18.81
2017-07-29T06:05:55.878Z,18.47
2017-07-29T06:08:24.297Z,18.59
2017-07-29T06:10:52.636Z,18.67
2017-07-29T06:13:21.409Z,18.80
2017-07-29T06:15:49.744Z,18.94
2017-07-29T06:18:18.091Z,19.01
2017-07-29T06:20:46.717Z,19.02
2017-07-29T06:23:15.073Z,18.91
2017-07-29T06:25:43.425Z,18.73
2017-07-29T06:28:12.263Z,18.80
2017-07-29T06:30:41.506Z,18.68
2017-07-29T06:33:09.846Z,18.51
2017-07-29T06:35:38.769Z,18.47
2017-07-29T06:38:07.114Z,18.29
2017-07-29T06:40:35.469Z,18.26
2017-07-29T06:43:04.098Z,18.54
2017-07-29T06:45:33.354Z,18.39
2017-07-29T06:48:01.700Z,18.68
2017-07-29T06:50:30.700Z,18.58
2017-07-29T06:52:59.051Z,18.59
2017-07-29T06:55:27.428Z,18.47
2017-07-29T06:57:56.133Z,18.48
2017-07-29T07:00:24.473Z,18.83
2017-07-29T07:02:52.830Z,18.98
2017-07-29T07:05:21.622Z,19.16
2017-07-29T07:07:49.949Z,19.36
2017-07-29T07:10:18.302Z,19.47
2017-07-29T07:12:47.069Z,19.50
2017-07-29T07:15:15.421Z,19.65
2017-07-29T07:17:43.817Z,19.75
2017-07-29T07:20:12.490Z,19.85
2017-07-29T07:22:40.847Z,19.91
2017-07-29T07:25:09.211Z,19.67
2017-07-29T07:27:38.132Z,19.84
2017-07-29T07:30:06.482Z,19.64
2017-07-29T07:32:35.605Z,19.54
2017-07-29T07:35:04.714Z,19.73
2017-07-29T07:37:33.079Z,19.70
2017-07-29T07:40:01.434Z,19.72
2017-07-29T07:42:30.219Z,19.54
2017-07-29T07:44:58.578Z,19.59
2017-07-29T07:47:26.927Z,19.81
2017-07-29T07:49:55.891Z,19.72
2017-07-29T07:52:24.264Z,19.96
2017-07-29T07:54:52.581Z,19.68
2017-07-29T07:57:22.115Z,19.79
2017-07-29T07:59:50.434Z,19.85
2017-07-29T08:02:18.774Z,19.81
2017-07-29T08:04:47.789Z,20.06
2017-07-29T08:07:16.107Z,20.10
2017-07-29T08:09:44.500Z,20.02
2017-07-29T08:12:13.240Z,20.05
2017-07-29T08:14:41.615Z,20.03
2017-07-29T08:17:09.956Z,20.11
2017-07-29T08:19:39.110Z,20.10
2017-07-29T08:22:07.468Z,20.08
2017-07-29T08:24:36.578Z,20.33
2017-07-29T08:27:05.372Z,20.55
2017-07-29T08:29:33.737Z,20.65
2017-07-29T08:32:02.073Z,20.47
2017-07-29T08:34:32.103Z,20.66
2017-07-29T08:37:01.897Z,20.86
2017-07-29T08:39:30.231Z,20.88
2017-07-29T08:41:59.159Z,21.30
2017-07-29T08:44:27.614Z,21.31
2017-07-29T08:46:55.981Z,21.42
2017-07-29T08:49:24.997Z,21.83
2017-07-29T08:51:53.382Z,21.84
2017-07-29T08:54:22.651Z,21.88
2017-07-29T08:56:51.262Z,22.04
2017-07-29T08:59:20.302Z,22.28
2017-07-29T09:01:48.678Z,22.34
2017-07-29T09:04:17.446Z,22.19
2017-07-29T09:06:45.848Z,22.28
2017-07-29T09:09:14.203Z,22.79
2017-07-29T09:11:42.958Z,23.28
2017-07-29T09:14:11.304Z,23.31
2017-07-29T09:16:40.547Z,23.55
2017-07-29T09:19:09.197Z,23.28
2017-07-29T09:21:37.563Z,23.70
2017-07-29T09:24:05.907Z,24.19
2017-07-29T09:26:35.274Z,24.61
2017-07-29T09:29:03.652Z,24.62
2017-07-29T09:31:32.017Z,24.86
2017-07-29T09:34:00.922Z,25.03
2017-07-29T09:36:29.271Z,24.60
2017-07-29T09:38:57.670Z,25.68
2017-07-29T09:41:26.357Z,25.94
2017-07-29T09:43:54.701Z,25.85
2017-07-29T09:46:23.060Z,25.58
2017-07-29T09:48:51.919Z,24.97
2017-07-29T09:51:20.286Z,24.95
2017-07-29T09:53:48.635Z,24.85
2017-07-29T09:56:17.468Z,24.61
2017-07-29T09:58:46.546Z,24.73
2017-07-29T10:01:14.902Z,24.41
2017-07-29T10:03:43.596Z,24.57
2017-07-29T10:06:11.936Z,24.49
2017-07-29T10:08:40.328Z,24.30
2017-07-29T10:11:09.520Z,23.75
2017-07-29T10:13:37.883Z,23.83
2017-07-29T10:16:06.262Z,23.77
2017-07-29T10:18:34.879Z,24.22
2017-07-29T10:21:03.244Z,24.21
2017-07-29T10:23:31.575Z,24.51
2017-07-29T10:26:01.085Z,24.21
2017-07-29T10:28:29.436Z,24.63
2017-07-29T10:30:58.015Z,24.46
2017-07-29T10:33:27.183Z,24.45
2017-07-29T10:35:55.542Z,24.83
2017-07-29T10:38:24.579Z,25.03
2017-07-29T10:40:53.216Z,25.02
2017-07-29T10:43:21.600Z,24.82
2017-07-29T10:45:49.965Z,25.16
2017-07-29T10:48:18.789Z,25.24
2017-07-29T10:50:47.169Z,25.12
2017-07-29T10:53:15.540Z,24.99
2017-07-29T10:55:44.396Z,24.71
2017-07-29T10:58:12.810Z,24.28
2017-07-29T11:00:41.176Z,24.07
2017-07-29T11:03:09.959Z,24.41
2017-07-29T11:05:39.108Z,24.67
2017-07-29T11:08:07.463Z,24.10
2017-07-29T11:10:36.213Z,24.02
2017-07-29T11:13:04.647Z,23.60
2017-07-29T11:15:33.009Z,23.52
2017-07-29T11:18:01.922Z,23.81
2017-07-29T11:20:30.280Z,24.08
2017-07-29T11:22:58.644Z,24.19
2017-07-29T11:25:27.506Z,24.58
2017-07-29T11:27:55.851Z,24.58
2017-07-29T11:30:24.978Z,24.68
2017-07-29T11:32:53.617Z,24.59
2017-07-29T11:35:21.972Z,24.66
2017-07-29T11:37:50.378Z,24.73
2017-07-29T11:40:20.286Z,24.12
2017-07-29T11:42:48.638Z,23.91
2017-07-29T11:45:17.322Z,24.05
2017-07-29T11:47:46.107Z,24.70
2017-07-29T11:50:14.480Z,25.95
2017-07-29T11:52:42.820Z,26.78
2017-07-29T11:55:11.603Z,26.92
2017-07-29T11:57:39.946Z,25.25
2017-07-29T12:00:08.282Z,25.21
2017-07-29T12:02:37.168Z,24.85
2017-07-29T12:05:05.531Z,24.35
2017-07-29T12:07:33.884Z,24.10
2017-07-29T12:10:02.644Z,24.85
2017-07-29T12:12:31.019Z,25.43
2017-07-29T12:14:59.371Z,25.79
2017-07-29T12:17:29.017Z,26.10
2017-07-29T12:19:57.390Z,26.83
2017-07-29T12:22:25.760Z,26.01
2017-07-29T12:24:54.674Z,26.23
2017-07-29T12:27:23.028Z,27.10
2017-07-29T12:29:51.400Z,26.92
2017-07-29T12:32:20.072Z,26.53
2017-07-29T12:34:48.426Z,26.51
2017-07-29T12:37:16.782Z,27.25
2017-07-29T12:39:46.082Z,27.25
2017-07-29T12:42:14.461Z,27.21
2017-07-29T12:44:42.866Z,27.85
2017-07-29T12:47:11.849Z,27.89
2017-07-29T12:49:40.204Z,27.75
2017-07-29T12:52:08.557Z,26.99
2017-07-29T12:54:37.370Z,27.42
2017-07-29T12:57:05.734Z,27.72
2017-07-29T12:59:34.082Z,27.47
2017-07-29T13:02:02.807Z,27.15
2017-07-29T13:04:31.161Z,27.14
2017-07-29T13:06:59.551Z,27.38
2017-07-29T13:09:28.382Z,27.15
2017-07-29T13:11:56.777Z,26.12
2017-07-29T13:14:25.136Z,26.37
2017-07-29T13:16:54.002Z,25.92
2017-07-29T13:19:22.417Z,25.87
2017-07-29T13:21:50.768Z,25.18
2017-07-29T13:24:19.585Z,25.79
2017-07-29T13:26:47.946Z,26.03
2017-07-29T13:29:16.298Z,25.65
2017-07-29T13:31:45.433Z,25.23
2017-07-29T13:34:13.803Z,25.67
2017-07-29T13:36:42.155Z,25.21
2017-07-29T13:39:10.858Z,25.69
2017-07-29T13:41:39.210Z,25.90
2017-07-29T13:44:07.618Z,26.41
2017-07-29T13:46:36.500Z,26.45
2017-07-29T13:49:05.298Z,26.19
2017-07-29T13:51:33.689Z,25.35
2017-07-29T13:54:02.659Z,25.58
2017-07-29T13:56:31.019Z,26.22
2017-07-29T13:58:59.388Z,26.49
2017-07-29T14:01:28.041Z,26.55
2017-07-29T14:03:56.430Z,25.91
2017-07-29T14:06:24.782Z,25.45
2017-07-29T14:08:53.684Z,25.71
2017-07-29T14:11:22.048Z,25.80
2017-07-29T14:13:50.381Z,25.89
2017-07-29T14:16:19.202Z,25.45
2017-07-29T14:18:47.549Z,26.22
2017-07-29T14:21:15.947Z,26.44
2017-07-29T14:23:45.577Z,26.19
2017-07-29T14:26:13.925Z,26.08
2017-07-29T14:28:42.528Z,26.10
2017-07-29T14:31:11.184Z,25.95
2017-07-29T14:33:39.546Z,25.88
2017-07-29T14:36:07.916Z,25.79
2017-07-29T14:38:36.878Z,25.55
2017-07-29T14:41:05.235Z,24.94
2017-07-29T14:43:33.599Z,24.37
2017-07-29T14:46:02.347Z,24.48
2017-07-29T14:48:37.392Z,24.54
2017-07-29T14:51:06.106Z,24.02
2017-07-29T14:53:34.460Z,23.99
2017-07-29T14:56:02.827Z,23.96
2017-07-29T14:58:32.108Z,23.73
2017-07-29T15:01:00.447Z,23.49
2017-07-29T15:03:29.525Z,23.51
2017-07-29T15:05:58.373Z,23.75
2017-07-29T15:08:26.736Z,23.86
2017-07-29T15:10:55.833Z,24.20
2017-07-29T15:13:24.457Z,24.41
2017-07-29T15:15:52.870Z,24.80
2017-07-29T15:18:21.221Z,24.80
2017-07-29T15:20:49.953Z,24.87
2017-07-29T15:23:19.082Z,24.77
2017-07-29T15:25:47.460Z,24.78
2017-07-29T15:28:16.229Z,25.13
2017-07-29T15:30:45.350Z,23.94
2017-07-29T15:33:13.726Z,24.15
2017-07-29T15:35:42.613Z,24.43
2017-07-29T15:38:10.977Z,24.71
2017-07-29T15:40:39.331Z,24.47
2017-07-29T15:43:08.479Z,24.58
2017-07-29T15:45:36.850Z,24.34
2017-07-29T15:48:05.222Z,23.95
2017-07-29T15:50:33.907Z,23.89
2017-07-29T15:53:02.291Z,23.42
2017-07-29T15:55:30.686Z,23.60
2017-07-29T15:57:59.570Z,24.02
2017-07-29T16:00:27.930Z,24.07
2017-07-29T16:02:56.335Z,24.16
2017-07-29T16:05:25.306Z,24.37
2017-07-29T16:07:53.668Z,24.01
2017-07-29T16:10:22.038Z,24.24
2017-07-29T16:12:50.654Z,24.29
2017-07-29T16:15:19.014Z,24.52
2017-07-29T16:17:48.140Z,24.58
2017-07-29T16:20:16.854Z,25.11
2017-07-29T16:22:45.248Z,25.49
2017-07-29T16:25:13.615Z,25.50
2017-07-29T16:27:42.557Z,25.72
2017-07-29T16:30:10.944Z,25.19
2017-07-29T16:32:39.318Z,25.15
2017-07-29T16:35:08.202Z,25.07
2017-07-29T16:37:36.552Z,24.75
2017-07-29T16:40:05.682Z,24.61
2017-07-29T16:42:34.334Z,24.35
2017-07-29T16:45:02.674Z,24.03
2017-07-29T16:47:31.028Z,24.33
2017-07-29T16:49:59.982Z,23.94
2017-07-29T16:52:28.356Z,24.06
2017-07-29T16:54:56.714Z,24.15
2017-07-29T16:57:25.426Z,24.38
2017-07-29T16:59:53.804Z,24.58
2017-07-29T17:02:22.167Z,24.78
2017-07-29T17:04:50.787Z,25.13
2017-07-29T17:07:19.121Z,24.90
2017-07-29T17:09:47.519Z,24.68
2017-07-29T17:12:16.357Z,24.45
2017-07-29T17:14:44.727Z,24.67
2017-07-29T17:17:13.091Z,24.54
2017-07-29T17:19:42.743Z,24.42
2017-07-29T17:22:11.115Z,24.56
2017-07-29T17:24:39.460Z,24.64
2017-07-29T17:27:08.666Z,24.66
2017-07-29T17:29:37.783Z,24.72
2017-07-29T17:32:06.155Z,24.40
2017-07-29T17:34:35.316Z,24.30
2017-07-29T17:37:03.668Z,23.99
2017-07-29T17:39:32.019Z,24.19
2017-07-29T17:42:00.896Z,24.23
2017-07-29T17:44:29.280Z,24.19
2017-07-29T17:46:57.652Z,24.19
2017-07-29T17:49:26.335Z,24.21
2017-07-29T17:51:54.702Z,24.05
2017-07-29T17:54:23.054Z,24.10
2017-07-29T17:56:52.000Z,24.03
2017-07-29T17:59:20.342Z,24.08
2017-07-29T18:01:48.712Z,24.39
2017-07-29T18:04:17.407Z,24.31
2017-07-29T18:06:45.747Z,24.33
2017-07-29T18:09:14.092Z,24.11
2017-07-29T18:11:43.017Z,23.99
2017-07-29T18:14:11.389Z,23.96
2017-07-29T18:16:39.754Z,24.10
2017-07-29T18:19:08.532Z,24.20
2017-07-29T18:21:36.928Z,24.14
2017-07-29T18:24:05.287Z,24.14
2017-07-29T18:26:33.935Z,24.05
2017-07-29T18:29:03.052Z,23.96
2017-07-29T18:31:31.422Z,24.12
2017-07-29T18:34:00.288Z,23.95
2017-07-29T18:36:28.651Z,23.91
2017-07-29T18:38:57.010Z,23.85
2017-07-29T18:41:25.987Z,23.60
2017-07-29T18:43:55.139Z,23.71
2017-07-29T18:46:23.548Z,23.68
2017-07-29T18:48:52.161Z,23.59
2017-07-29T18:51:20.497Z,23.77
2017-07-29T18:53:48.829Z,23.83
2017-07-29T18:56:17.556Z,23.79
2017-07-29T18:58:45.889Z,23.82
2017-07-29T19:01:14.239Z,23.94
2017-07-29T19:03:44.075Z,23.75
2017-07-29T19:06:12.419Z,23.89
2017-07-29T19:08:40.807Z,23.62
2017-07-29T19:11:09.518Z,23.63
2017-07-29T19:13:37.862Z,23.63
2017-07-29T19:16:06.182Z,23.65
2017-07-29T19:18:34.822Z,23.51
2017-07-29T19:21:03.172Z,23.31
2017-07-29T19:23:31.561Z,23.21
2017-07-29T19:26:01.171Z,23.00
2017-07-29T19:28:29.540Z,23.14
2017-07-29T19:30:57.888Z,23.30
2017-07-29T19:33:26.536Z,23.36
2017-07-29T19:35:54.881Z,23.27
2017-07-29T19:38:23.229Z,23.10
2017-07-29T19:40:51.947Z,22.92
2017-07-29T19:43:20.318Z,23.04
2017-07-29T19:45:48.678Z,23.03
2017-07-29T19:48:17.984Z,22.97
2017-07-29T19:50:46.344Z,22.88
2017-07-29T19:53:15.476Z,22.73
2017-07-29T19:55:44.162Z,22.59
2017-07-29T19:58:12.538Z,22.56
2017-07-29T20:00:40.905Z,22.62
2017-07-29T20:03:09.719Z,22.84
2017-07-29T20:05:38.089Z,22.87
2017-07-29T20:08:06.459Z,22.77
2017-07-29T20:10:35.338Z,22.81
2017-07-29T20:13:03.693Z,22.91
2017-07-29T20:15:32.067Z,22.94
2017-07-29T20:18:00.975Z,22.85
2017-07-29T20:20:29.320Z,22.93
2017-07-29T20:22:57.687Z,23.01
2017-07-29T20:25:26.439Z,23.04
2017-07-29T20:27:54.802Z,22.98
2017-07-29T20:30:23.149Z,23.06
2017-07-29T20:32:52.107Z,23.13
2017-07-29T20:35:20.474Z,23.20
2017-07-29T20:37:48.829Z,23.24
2017-07-29T20:40:17.608Z,23.23
2017-07-29T20:42:45.971Z,23.18
2017-07-29T20:45:14.443Z,23.15
2017-07-29T20:47:43.423Z,23.14
2017-07-29T20:50:11.899Z,23.03
2017-07-29T20:52:40.288Z,22.96
2017-07-29T20:55:09.289Z,23.01
2017-07-29T20:57:37.656Z,22.99
2017-07-29T21:00:06.491Z,22.73
2017-07-29T21:02:35.938Z,22.58
2017-07-29T21:05:04.287Z,22.12
2017-07-29T21:07:32.641Z,22.15
2017-07-29T21:10:01.395Z,22.30
2017-07-29T21:12:29.748Z,22.46
2017-07-29T21:14:58.107Z,22.68
2017-07-29T21:17:26.784Z,22.78
2017-07-29T21:19:55.148Z,22.92
2017-07-29T21:22:23.534Z,23.00
2017-07-29T21:24:52.303Z,23.01
2017-07-29T21:27:20.633Z,22.98
2017-07-29T21:29:49.002Z,22.78
2017-07-29T21:32:17.698Z,22.68
2017-07-29T21:34:46.057Z,22.51
2017-07-29T21:37:15.219Z,22.42
2017-07-29T21:39:44.605Z,22.57
2017-07-29T21:42:12.983Z,22.66
2017-07-29T21:44:41.349Z,22.66
2017-07-29T21:47:10.022Z,22.67
2017-07-29T21:49:38.389Z,22.52
2017-07-29T21:52:07.043Z,22.49
2017-07-29T21:54:35.771Z,22.29
2017-07-29T21:57:04.136Z,22.05
2017-07-29T21:59:32.488Z,21.85
2017-07-29T22:02:01.345Z,21.89
2017-07-29T22:04:29.700Z,21.88
2017-07-29T22:06:58.064Z,21.86
2017-07-29T22:09:26.757Z,21.97
2017-07-29T22:11:55.111Z,22.01
2017-07-29T22:14:23.495Z,22.05
2017-07-29T22:16:52.194Z,22.06
2017-07-29T22:19:20.548Z,22.32
2017-07-29T22:21:48.890Z,22.41
2017-07-29T22:24:17.816Z,22.26
2017-07-29T22:26:46.174Z,22.27
2017-07-29T22:29:14.529Z,22.19
2017-07-29T22:31:43.155Z,22.08
2017-07-29T22:34:11.517Z,22.11
2017-07-29T22:36:39.892Z,22.20
2017-07-29T22:39:08.565Z,22.02
2017-07-29T22:41:36.943Z,22.10
2017-07-29T22:44:05.319Z,22.03
2017-07-29T22:46:35.146Z,21.92
2017-07-29T22:49:04.314Z,21.71
2017-07-29T22:51:32.698Z,21.85
2017-07-29T22:54:01.713Z,21.77
2017-07-29T22:56:30.726Z,21.82
2017-07-29T22:58:59.116Z,21.90
2017-07-29T23:01:27.752Z,21.95
2017-07-29T23:03:56.150Z,21.73
2017-07-29T23:06:24.498Z,21.72
2017-07-29T23:08:54.236Z,21.81
2017-07-29T23:11:22.616Z,21.96
2017-07-29T23:13:50.978Z,21.95
2017-07-29T23:16:19.647Z,21.90
2017-07-29T23:18:47.997Z,21.94
2017-07-29T23:21:16.346Z,22.06
2017-07-29T23:23:45.333Z,22.16
2017-07-29T23:26:13.754Z,22.29
2017-07-29T23:28:42.890Z,22.27
2017-07-29T23:31:12.011Z,22.21
2017-07-29T23:33:40.390Z,22.17
2017-07-29T23:36:08.747Z,22.00
2017-07-29T23:38:37.369Z,22.08
2017-07-29T23:41:05.726Z,22.05
2017-07-29T23:43:34.080Z,22.04
2017-07-29T23:46:04.290Z,22.31
2017-07-29T23:48:32.620Z,22.36
2017-07-29T23:51:00.986Z,22.32
2017-07-29T23:53:30.027Z,22.21
2017-07-29T23:55:58.374Z,22.22
2017-07-29T23:58:26.728Z,22.16
